Terminal Aerodrome Forecast
Issued by NWS Wilmington, OH

Home | Current Version | Previous Version | Text Only | Print | Product List | Glossary On
Versions: 1 2 3 4 5 6 7 8 9 10 11 12 13 14 15 16 17 18 19 20 21 22 23
000
FTUS41 KILN 110901 AAB
TAFDAY
TAF AMD
KDAY 110901Z 1109/1206 11011KT 6SM BR BKN060 BKN080 OVC100
     FM111100 16008KT P6SM OVC040
     FM111800 18012G18KT P6SM -RASN OVC035
     FM120300 21012KT 4SM -RA BR OVC015=

USA.gov is the U.S. government's official web portal to all federal, state and local government web resources and services.